Time;durP1;ratioP1;P1;durP2;ratioP2;P2;SDS_P1;SDS_P2;PMS_P1;PMS_P2;Temp;Humidity;BMP_temperature;BMP_pressure;BME280_temperature;BME280_humidity;BME280_pressure;Samples;Min_cycle;Max_cycle;Signal;HPM_P1;HPM_P2
2022/08/16 00:01:22;;;;;;;9.98;2.67;;;;;;;15.22;100.00;100228.63;5042205;28;20055;-83
2022/08/16 00:03:51;;;;;;;7.78;3.00;;;;;;;15.28;100.00;100246.69;5041688;28;20053;-83
2022/08/16 00:06:20;;;;;;;7.90;2.72;;;;;;;15.35;100.00;100229.50;5054809;28;20106;-84
2022/08/16 00:08:48;;;;;;;8.48;2.75;;;;;;;15.69;100.00;100253.69;5054976;28;20403;-84
2022/08/16 00:11:15;;;;;;;7.88;2.33;;;;;;;15.49;100.00;100233.88;5055148;28;20048;-84
2022/08/16 00:13:47;;;;;;;9.02;2.53;;;;;;;15.54;100.00;100224.72;5054317;28;20100;-83
2022/08/16 00:16:25;;;;;;;6.28;2.08;;;;;;;15.76;100.00;100257.63;5040782;28;20055;-84
2022/08/16 00:19:13;;;;;;;6.25;2.22;;;;;;;15.57;100.00;100257.97;5054547;28;20491;-83
2022/08/16 00:21:42;;;;;;;7.18;2.40;;;;;;;15.59;100.00;100256.06;5046684;28;20049;-83
2022/08/16 00:24:10;;;;;;;8.80;2.50;;;;;;;15.36;100.00;100254.94;5054302;28;20052;-83
2022/08/16 00:26:39;;;;;;;6.63;2.47;;;;;;;15.50;100.00;100240.88;5055262;28;20052;-82
2022/08/16 00:29:15;;;;;;;5.88;2.20;;;;;;;15.52;100.00;100244.25;5054156;28;20044;-83
2022/08/16 00:31:49;;;;;;;6.28;2.42;;;;;;;15.40;100.00;100245.03;5040270;28;20049;-83
2022/08/16 00:34:32;;;;;;;7.28;2.65;;;;;;;15.21;100.00;100240.13;5054029;28;20079;-83
2022/08/16 00:37:19;;;;;;;7.80;3.03;;;;;;;15.17;100.00;100232.44;5054503;28;20475;-83
2022/08/16 00:39:47;;;;;;;8.25;2.33;;;;;;;15.38;100.00;100247.78;5054252;28;20072;-83
2022/08/16 00:42:26;;;;;;;7.95;2.55;;;;;;;15.45;100.00;100245.59;5055480;28;20392;-83
2022/08/16 00:45:01;;;;;;;7.45;2.78;;;;;;;15.58;100.00;100243.81;5055224;28;20174;-83
2022/08/16 00:47:35;;;;;;;8.80;2.35;;;;;;;15.53;100.00;100230.13;5041152;28;20049;-83
2022/08/16 00:50:05;;;;;;;9.80;2.70;;;;;;;15.52;100.00;100244.25;5051988;28;20081;-83
2022/08/16 00:52:39;;;;;;;5.07;1.83;;;;;;;15.61;100.00;100224.31;5041122;28;20060;-83
2022/08/16 00:55:21;;;;;;;6.65;2.03;;;;;;;15.63;100.00;100215.34;5040625;28;20419;-83
2022/08/16 00:57:51;;;;;;;7.47;2.63;;;;;;;15.61;100.00;100211.97;5053969;28;20049;-83
2022/08/16 01:00:28;;;;;;;7.80;2.40;;;;;;;15.57;100.00;100218.41;5053639;28;20045;-83
2022/08/16 01:02:58;;;;;;;7.85;1.83;;;;;;;15.61;100.00;100229.59;5053096;28;20055;-82
2022/08/16 01:05:26;;;;;;;5.65;2.13;;;;;;;15.67;100.00;100218.59;5046273;28;20049;-83
2022/08/16 01:07:54;;;;;;;7.93;2.05;;;;;;;15.54;100.00;100214.16;5048044;28;20052;-83
2022/08/16 01:10:24;;;;;;;5.60;2.17;;;;;;;15.50;100.00;100210.03;5052801;28;20072;-83
2022/08/16 01:13:03;;;;;;;5.30;1.95;;;;;;;15.82;100.00;100219.44;5043276;28;20045;-83
2022/08/16 01:15:32;;;;;;;7.50;2.03;;;;;;;15.52;100.00;100208.13;5054891;28;20418;-83
2022/08/16 01:18:03;;;;;;;5.20;1.90;;;;;;;15.34;100.00;100212.00;5041058;28;20052;-83
2022/08/16 01:20:36;;;;;;;5.72;2.00;;;;;;;15.33;100.00;100227.00;5037548;28;20136;-83
2022/08/16 01:23:37;;;;;;;7.97;2.20;;;;;;;15.42;100.00;100228.16;5049183;28;20415;-83
2022/08/16 01:26:29;;;;;;;7.28;2.50;;;;;;;15.28;100.00;100210.63;5030396;28;20057;-83
2022/08/16 01:29:06;;;;;;;5.32;1.90;;;;;;;15.50;100.00;100223.22;5053757;28;20048;-83
2022/08/16 01:31:35;;;;;;;5.65;2.00;;;;;;;15.35;100.00;100216.31;5053065;28;20051;-83
2022/08/16 01:34:09;;;;;;;4.75;1.73;;;;;;;15.42;100.00;100228.16;5053563;28;20548;-83
2022/08/16 01:37:07;;;;;;;5.82;1.95;;;;;;;15.25;100.00;100224.00;5038820;28;20061;-84
2022/08/16 01:39:34;;;;;;;5.17;2.00;;;;;;;15.28;100.00;100220.31;5041095;28;20394;-83
2022/08/16 01:42:03;;;;;;;5.10;1.80;;;;;;;15.28;100.00;100229.09;5049586;28;20049;-82
2022/08/16 01:44:39;;;;;;;4.70;1.80;;;;;;;15.32;100.00;100227.09;5053276;28;20486;-83
2022/08/16 01:47:07;;;;;;;4.88;1.50;;;;;;;15.25;100.00;100228.44;5054217;28;20509;-84
2022/08/16 01:49:39;;;;;;;5.57;1.33;;;;;;;15.29;100.00;100227.28;5053095;28;20060;-83
2022/08/16 01:52:26;;;;;;;6.25;1.75;;;;;;;15.33;100.00;100221.72;5052782;28;20048;-83
2022/08/16 01:54:56;;;;;;;5.80;1.75;;;;;;;15.27;100.00;100231.81;5048340;28;20076;-84
2022/08/16 01:57:26;;;;;;;4.70;1.65;;;;;;;15.02;100.00;100237.84;5052990;28;20056;-83
2022/08/16 01:59:57;;;;;;;6.25;1.80;;;;;;;14.88;100.00;100228.16;5052716;28;20049;-84
2022/08/16 02:02:25;;;;;;;5.65;1.67;;;;;;;15.12;100.00;100242.44;5052283;28;20128;-84
2022/08/16 02:04:55;;;;;;;5.30;1.63;;;;;;;15.06;100.00;100234.88;5053344;28;20041;-84
2022/08/16 02:07:23;;;;;;;5.75;1.70;;;;;;;15.21;100.00;100253.31;5053741;28;20133;-84
2022/08/16 02:09:51;;;;;;;7.65;1.85;;;;;;;15.14;100.00;100253.72;5042792;28;20041;-84
2022/08/16 02:12:29;;;;;;;4.05;1.55;;;;;;;15.12;100.00;100246.81;5052160;28;20128;-84
2022/08/16 02:15:17;;;;;;;5.60;1.90;;;;;;;15.06;100.00;100253.34;5052185;28;20053;-84
2022/08/16 02:17:51;;;;;;;4.63;1.63;;;;;;;15.18;100.00;100243.81;5051396;28;20048;-84
2022/08/16 02:20:18;;;;;;;3.65;1.15;;;;;;;15.16;100.00;100232.53;5053680;28;20126;-84
2022/08/16 02:22:52;;;;;;;6.00;1.70;;;;;;;15.09;100.00;100237.34;5052900;28;20406;-84
2022/08/16 02:25:21;;;;;;;4.00;1.58;;;;;;;15.11;100.00;100232.81;5052399;28;20045;-83
2022/08/16 02:27:49;;;;;;;4.03;1.48;;;;;;;14.88;100.00;100212.38;5052139;28;20475;-84
2022/08/16 02:30:26;;;;;;;4.85;1.63;;;;;;;14.89;100.00;100246.53;5052047;28;20060;-84
2022/08/16 02:33:10;;;;;;;4.47;1.92;;;;;;;14.88;100.00;100244.81;5052257;28;20402;-84
2022/08/16 02:35:38;;;;;;;3.83;1.52;;;;;;;15.08;100.00;100242.72;5051892;28;20059;-84
2022/08/16 02:38:20;;;;;;;9.68;2.03;;;;;;;15.03;100.00;100236.88;5052781;28;20072;-84
2022/08/16 02:40:47;;;;;;;2.72;1.23;;;;;;;15.11;100.00;100251.25;5052085;28;20056;-84
2022/08/16 02:43:14;;;;;;;4.78;1.52;;;;;;;15.06;100.00;100245.44;5051540;28;20053;-83
2022/08/16 02:45:41;;;;;;;4.90;1.70;;;;;;;14.94;100.00;100249.72;5052092;28;20410;-84
2022/08/16 02:48:09;;;;;;;4.38;1.60;;;;;;;14.98;100.00;100247.75;5039668;28;20128;-84
2022/08/16 02:50:57;;;;;;;5.93;1.70;;;;;;;14.87;100.00;100248.38;5049001;28;20077;-84
2022/08/16 02:53:41;;;;;;;6.10;1.65;;;;;;;14.98;100.00;100260.91;5049093;28;20475;-84
2022/08/16 02:56:11;;;;;;;6.90;1.70;;;;;;;14.77;100.00;100253.41;5051114;28;20087;-84
2022/08/16 02:58:41;;;;;;;5.15;1.52;;;;;;;14.84;100.00;100243.34;5051373;28;20098;-83
2022/08/16 03:01:10;;;;;;;6.60;1.75;;;;;;;14.82;100.00;100258.41;5051674;28;20041;-84
2022/08/16 03:03:53;;;;;;;7.78;1.70;;;;;;;14.91;100.00;100262.22;5051744;28;20041;-84
2022/08/16 03:06:40;;;;;;;9.82;1.77;;;;;;;14.80;100.00;100253.22;5044575;28;20049;-84
2022/08/16 03:09:09;;;;;;;4.43;1.50;;;;;;;14.81;100.00;100246.16;5049407;28;20080;-84
2022/08/16 03:11:40;;;;;;;3.47;1.30;;;;;;;14.70;100.00;100244.19;5050963;28;20495;-84
2022/08/16 03:14:07;;;;;;;4.80;1.60;;;;;;;14.67;100.00;100240.91;5051481;28;20411;-84
2022/08/16 03:16:34;;;;;;;4.03;1.42;;;;;;;14.72;100.00;100252.84;5037106;28;20048;-84
2022/08/16 03:19:08;;;;;;;4.03;1.40;;;;;;;14.82;100.00;100245.22;5052792;28;20049;-83
2022/08/16 03:21:35;;;;;;;4.03;1.30;;;;;;;14.63;100.00;100242.06;5051045;28;20440;-84
2022/08/16 03:24:07;;;;;;;4.10;1.42;;;;;;;14.90;100.00;100242.94;5051489;28;20052;-84
2022/08/16 03:26:57;;;;;;;4.55;1.60;;;;;;;14.73;100.00;100229.97;5040659;28;20124;-84
2022/08/16 03:29:30;;;;;;;5.10;1.60;;;;;;;14.84;100.00;100245.09;5051559;28;20083;-84
2022/08/16 03:31:58;;;;;;;3.40;1.38;;;;;;;14.69;100.00;100241.66;5041453;28;20064;-84
2022/08/16 03:34:29;;;;;;;3.22;1.38;;;;;;;14.84;100.00;100243.34;5038454;28;20046;-84
2022/08/16 03:36:56;;;;;;;4.60;1.77;;;;;;;14.67;100.00;100241.75;5053658;28;20049;-84
2022/08/16 03:39:23;;;;;;;5.47;1.55;;;;;;;14.57;100.00;100230.06;5055412;28;20057;-84
2022/08/16 03:41:51;;;;;;;6.30;1.33;;;;;;;14.55;100.00;100238.06;5054600;28;20045;-84
2022/08/16 03:44:26;;;;;;;4.65;1.75;;;;;;;14.56;100.00;100234.50;5055448;28;20049;-84
2022/08/16 03:47:14;;;;;;;5.05;1.30;;;;;;;14.51;100.00;100252.38;5054551;28;20053;-84
2022/08/16 03:49:46;;;;;;;3.72;1.30;;;;;;;14.66;100.00;100239.22;5055530;28;20048;-84
2022/08/16 03:52:19;;;;;;;4.80;1.60;;;;;;;14.74;100.00;100247.50;5047522;28;20136;-83
2022/08/16 03:54:49;;;;;;;3.90;1.27;;;;;;;14.91;100.00;100256.94;5055145;28;20415;-84
2022/08/16 03:57:24;;;;;;;4.85;1.50;;;;;;;14.56;100.00;100223.94;5047138;28;20448;-84
2022/08/16 04:00:11;;;;;;;3.97;1.25;;;;;;;14.85;100.00;100254.72;5055174;28;20137;-84
2022/08/16 04:03:06;;;;;;;4.05;1.20;;;;;;;14.57;100.00;100256.41;5052163;28;20045;-84
2022/08/16 04:05:36;;;;;;;5.85;1.20;;;;;;;14.60;100.00;100250.97;5052150;28;20052;-84
2022/08/16 04:08:05;;;;;;;5.97;1.17;;;;;;;14.75;100.00;100262.34;5045459;28;20120;-84
2022/08/16 04:10:51;;;;;;;2.72;1.10;;;;;;;14.79;100.00;100253.31;5055335;28;20433;-84
2022/08/16 04:13:18;;;;;;;3.75;1.25;;;;;;;14.54;100.00;100239.00;5046924;28;20049;-84
2022/08/16 04:16:05;;;;;;;4.05;1.05;;;;;;;14.37;100.00;100261.09;5054588;28;20052;-84
2022/08/16 04:18:35;;;;;;;2.08;1.13;;;;;;;14.35;100.00;100244.56;5055081;28;20052;-84
2022/08/16 04:21:02;;;;;;;3.47;1.15;;;;;;;14.46;100.00;100259.69;5054501;28;20088;-84
2022/08/16 04:23:29;;;;;;;3.47;0.90;;;;;;;14.39;100.00;100255.75;5054490;28;20059;-84
2022/08/16 04:25:56;;;;;;;3.85;0.90;;;;;;;14.29;100.00;100268.66;5052934;28;20056;-83
2022/08/16 04:28:27;;;;;;;1.45;0.80;;;;;;;14.27;100.00;100256.50;5054503;28;20056;-84
2022/08/16 04:31:14;;;;;;;2.00;0.80;;;;;;;14.34;100.00;100263.06;5053780;28;20052;-83
2022/08/16 04:33:41;;;;;;;2.10;0.90;;;;;;;14.24;100.00;100266.28;5041603;28;20045;-83
2022/08/16 04:36:17;;;;;;;2.45;0.70;;;;;;;14.23;100.00;100263.72;5054597;28;20045;-84
2022/08/16 04:38:46;;;;;;;2.50;0.85;;;;;;;14.37;100.00;100271.63;5054105;28;20049;-84
2022/08/16 04:41:16;;;;;;;3.03;0.90;;;;;;;14.22;100.00;100259.44;5052489;28;20076;-84
2022/08/16 04:43:43;;;;;;;1.58;0.75;;;;;;;14.15;100.00;100263.38;5047677;28;20052;-84
2022/08/16 04:46:14;;;;;;;3.67;1.05;;;;;;;14.38;100.00;100270.72;5045618;28;20483;-84
2022/08/16 04:49:00;;;;;;;3.42;0.90;;;;;;;14.18;100.00;100261.41;5040225;28;20052;-84
2022/08/16 04:51:27;;;;;;;2.65;0.95;;;;;;;14.14;100.00;100259.03;5039948;28;20503;-84
2022/08/16 04:54:01;;;;;;;3.95;0.90;;;;;;;14.24;100.00;100276.81;5053026;28;20049;-84
2022/08/16 04:56:29;;;;;;;3.05;0.80;;;;;;;13.97;100.00;100260.88;5041346;28;20104;-84
2022/08/16 04:58:56;;;;;;;2.28;0.80;;;;;;;14.08;100.00;100273.41;5051694;28;20044;-84
2022/08/16 05:01:23;;;;;;;2.22;0.80;;;;;;;14.02;100.00;100282.53;5052461;28;20049;-84
2022/08/16 05:04:10;;;;;;;4.47;0.80;;;;;;;13.95;100.00;100267.16;5052648;28;20445;-84
2022/08/16 05:06:45;;;;;;;1.95;0.80;;;;;;;14.15;100.00;100276.53;5053127;28;20081;-84
2022/08/16 05:09:13;;;;;;;6.13;1.10;;;;;;;14.10;100.00;100278.59;5047362;28;20049;-84
2022/08/16 05:11:42;;;;;;;2.58;0.93;;;;;;;14.12;100.00;100268.81;5051800;28;20045;-84
2022/08/16 05:14:09;;;;;;;2.83;0.82;;;;;;;14.04;100.00;100270.13;5052377;28;20049;-84
2022/08/16 05:16:45;;;;;;;3.78;1.23;;;;;;;14.03;100.00;100284.19;5053912;28;20399;-84
2022/08/16 05:19:17;;;;;;;2.85;1.10;;;;;;;14.14;100.00;100256.41;5052429;28;20491;-85
2022/08/16 05:21:44;;;;;;;2.58;0.95;;;;;;;14.09;100.00;100277.72;5052190;28;20818;-84
2022/08/16 05:24:11;;;;;;;2.60;0.93;;;;;;;14.09;100.00;100267.19;5052048;28;20053;-85
2022/08/16 05:26:38;;;;;;;2.20;0.98;;;;;;;14.23;100.00;100290.06;5040125;28;20094;-84
2022/08/16 05:29:09;;;;;;;1.23;0.88;;;;;;;14.26;100.00;100279.34;5051983;28;20052;-85
2022/08/16 05:31:41;;;;;;;1.67;0.98;;;;;;;14.27;100.00;100277.56;5051788;28;20037;-85
2022/08/16 05:34:14;;;;;;;1.73;0.80;;;;;;;14.20;100.00;100279.72;5052218;28;20045;-85
2022/08/16 05:36:48;;;;;;;2.90;0.90;;;;;;;14.16;100.00;100300.09;5049303;28;20068;-85
2022/08/16 05:39:17;;;;;;;2.30;0.80;;;;;;;14.31;100.00;100287.81;5001201;28;1213545;-85
2022/08/16 05:41:46;;;;;;;3.38;0.90;;;;;;;14.43;100.00;100300.25;5052510;28;20040;-84
2022/08/16 05:44:17;;;;;;;1.13;0.80;;;;;;;14.48;100.00;100302.59;5054031;28;20135;-85
2022/08/16 05:46:53;;;;;;;4.88;0.85;;;;;;;14.60;100.00;100298.41;5052907;28;20049;-84
2022/08/16 05:49:21;;;;;;;3.20;1.02;;;;;;;14.63;100.00;100285.06;5052871;28;20053;-85
2022/08/16 05:51:49;;;;;;;1.17;0.70;;;;;;;14.38;100.00;100299.69;5052828;28;20459;-84
2022/08/16 05:54:16;;;;;;;2.67;0.80;;;;;;;14.32;100.00;100284.22;5052059;28;20045;-84
2022/08/16 05:56:52;;;;;;;2.10;0.90;;;;;;;14.52;100.00;100305.88;5043918;28;20049;-84
2022/08/16 05:59:19;;;;;;;1.23;0.70;;;;;;;14.59;100.00;100308.09;5051557;28;20049;-84
2022/08/16 06:01:49;;;;;;;1.25;0.80;;;;;;;14.59;100.00;100302.84;5053826;28;20049;-84
2022/08/16 06:04:17;;;;;;;1.75;0.80;;;;;;;14.35;100.00;100289.31;5052669;28;20044;-84
2022/08/16 06:07:04;;;;;;;2.33;0.80;;;;;;;14.37;100.00;100297.13;5052551;28;20081;-84
2022/08/16 06:09:34;;;;;;;1.90;0.70;;;;;;;14.42;100.00;100300.34;5052830;28;20483;-85
2022/08/16 06:12:11;;;;;;;3.78;0.90;;;;;;;14.37;100.00;100305.88;5051958;28;20052;-84
2022/08/16 06:14:56;;;;;;;3.10;0.85;;;;;;;14.34;100.00;100303.44;5046452;28;20498;-84
2022/08/16 06:17:24;;;;;;;1.98;0.80;;;;;;;14.37;100.00;100307.66;5032272;28;20057;-84
2022/08/16 06:20:13;;;;;;;3.72;0.82;;;;;;;14.42;100.00;100309.09;5040109;28;20056;-84
2022/08/16 06:22:44;;;;;;;2.92;0.77;;;;;;;14.34;100.00;100298.19;5053299;28;20054;-84
2022/08/16 06:25:25;;;;;;;2.22;0.82;;;;;;;14.58;100.00;100305.56;5052806;28;20060;-84
2022/08/16 06:28:04;;;;;;;2.67;0.95;;;;;;;14.53;100.00;100284.72;5050040;28;20102;-83
2022/08/16 06:30:35;;;;;;;1.47;0.73;;;;;;;14.39;100.00;100274.19;5043664;28;20076;-84
2022/08/16 06:33:13;;;;;;;2.40;0.80;;;;;;;14.28;100.00;100287.16;5052589;28;20684;-84
2022/08/16 06:35:52;;;;;;;2.83;0.93;;;;;;;14.22;100.00;100262.06;5052567;28;20080;-82
2022/08/16 06:38:25;;;;;;;2.88;0.90;;;;;;;14.21;100.00;100260.34;5048395;28;20095;-83
2022/08/16 06:41:06;;;;;;;2.40;0.80;;;;;;;14.41;100.00;100302.13;5044161;28;20119;-84
2022/08/16 06:43:39;;;;;;;1.30;0.75;;;;;;;14.60;100.00;100307.16;5038524;28;20071;-84
2022/08/16 06:46:09;;;;;;;1.92;1.00;;;;;;;14.46;100.00;100295.75;5048768;28;20130;-84
2022/08/16 06:48:36;;;;;;;2.65;0.77;;;;;;;14.59;100.00;100304.63;5051338;28;20406;-84
2022/08/16 06:51:09;;;;;;;2.80;0.80;;;;;;;14.28;100.00;100264.31;5052416;28;20055;-83
2022/08/16 06:53:36;;;;;;;5.45;1.00;;;;;;;14.18;100.00;100253.50;5049031;28;20045;-84
2022/08/16 06:56:05;;;;;;;3.58;1.00;;;;;;;14.47;100.00;100321.16;5054241;28;20129;-84
2022/08/16 06:58:43;;;;;;;2.38;0.80;;;;;;;14.23;100.00;100267.19;5039661;28;20076;-83
2022/08/16 07:01:11;;;;;;;3.05;1.00;;;;;;;14.40;100.00;100292.53;5052323;28;20057;-83
2022/08/16 07:03:42;;;;;;;2.55;0.80;;;;;;;14.74;100.00;100330.03;5053588;28;20067;-83
2022/08/16 07:06:23;;;;;;;2.78;0.98;;;;;;;14.66;100.00;100320.88;5052367;28;20045;-83
2022/08/16 07:08:53;;;;;;;4.15;1.00;;;;;;;14.60;100.00;100324.75;5051565;28;20052;-84
2022/08/16 07:11:20;;;;;;;3.00;1.00;;;;;;;14.54;100.00;100325.94;5044426;28;20120;-84
2022/08/16 07:14:07;;;;;;;2.92;1.00;;;;;;;14.22;100.00;100294.50;5050355;28;20053;-84
2022/08/16 07:16:51;;;;;;;8.07;1.40;;;;;;;14.31;100.00;100311.53;5042878;28;20045;-83
2022/08/16 07:19:18;;;;;;;4.15;1.10;;;;;;;14.56;100.00;100325.84;5052079;28;20049;-83
2022/08/16 07:21:45;;;;;;;2.13;0.98;;;;;;;14.12;100.00;100284.59;5052808;28;20045;-83
2022/08/16 07:24:26;;;;;;;4.47;1.08;;;;;;;14.54;100.00;100333.00;5051740;28;20052;-83
2022/08/16 07:26:58;;;;;;;3.75;0.93;;;;;;;14.44;100.00;100323.00;5051788;28;20053;-83
2022/08/16 07:29:27;;;;;;;7.53;1.33;;;;;;;14.64;100.00;100342.06;5052635;28;20053;-84
2022/08/16 07:31:57;;;;;;;5.00;1.00;;;;;;;14.33;100.00;100306.16;5031651;28;20049;-84
2022/08/16 07:34:26;;;;;;;10.57;1.30;;;;;;;14.22;100.00;100304.19;5045038;28;20045;-84
2022/08/16 07:37:09;;;;;;;3.05;1.00;;;;;;;14.41;100.00;100307.41;5038961;28;20515;-84
2022/08/16 07:39:37;;;;;;;4.00;1.23;;;;;;;14.27;100.00;100293.34;5051490;28;20537;-84
2022/08/16 07:42:10;;;;;;;3.05;1.05;;;;;;;14.56;100.00;100355.66;5031642;28;20141;-83
2022/08/16 07:44:51;;;;;;;5.85;1.25;;;;;;;14.34;100.00;100313.97;5046326;28;20049;-84
2022/08/16 07:47:19;;;;;;;3.05;1.15;;;;;;;14.91;100.00;100367.66;5052530;28;20049;-83
2022/08/16 07:49:50;;;;;;;3.13;0.90;;;;;;;14.57;100.00;100309.09;5039348;28;20446;-83
2022/08/16 07:52:24;;;;;;;3.80;1.08;;;;;;;14.46;100.00;100361.59;5034338;28;20049;-83
2022/08/16 07:54:56;;;;;;;2.38;0.88;;;;;;;14.54;100.00;100354.09;5046976;28;20418;-84
2022/08/16 07:57:23;;;;;;;4.13;0.93;;;;;;;14.60;100.00;100372.16;5042058;28;20053;-84
2022/08/16 07:59:51;;;;;;;2.45;0.88;;;;;;;14.37;100.00;100336.63;5052633;28;20079;-83
2022/08/16 08:02:18;;;;;;;3.38;1.05;;;;;;;14.90;100.00;100373.88;5038505;28;20047;-84
2022/08/16 08:04:47;;;;;;;2.85;0.82;;;;;;;14.55;100.00;100327.63;5051403;28;20415;-83
2022/08/16 08:07:15;;;;;;;1.60;0.80;;;;;;;14.85;100.00;100387.34;5051142;28;20084;-83
2022/08/16 08:09:42;;;;;;;1.40;0.80;;;;;;;14.53;100.00;100323.41;5051455;28;20049;-83
2022/08/16 08:12:11;;;;;;;3.63;0.90;;;;;;;14.36;100.00;100343.69;5037353;28;20476;-83
2022/08/16 08:14:58;;;;;;;2.58;0.82;;;;;;;14.54;100.00;100343.53;5044605;28;20060;-84
2022/08/16 08:17:28;;;;;;;3.45;0.70;;;;;;;14.83;100.00;100383.13;5045786;28;20049;-84
2022/08/16 08:20:13;;;;;;;4.45;0.85;;;;;;;14.97;100.00;100380.47;5051741;28;20403;-84
2022/08/16 08:22:57;;;;;;;1.63;0.70;;;;;;;14.94;100.00;100394.72;5055126;28;20041;-84
2022/08/16 08:25:28;;;;;;;4.10;0.90;;;;;;;14.79;100.00;100375.38;5050568;28;20384;-83
2022/08/16 08:28:16;;;;;;;3.15;0.90;;;;;;;14.43;100.00;100352.09;5041880;28;20053;-84
2022/08/16 08:30:44;;;;;;;3.53;0.93;;;;;;;14.70;100.00;100404.94;5054893;28;20048;-83
2022/08/16 08:33:27;;;;;;;3.60;0.80;;;;;;;14.85;100.00;100389.97;5054733;28;20037;-84
2022/08/16 08:35:57;;;;;;;5.38;1.08;;;;;;;14.94;100.00;100388.56;5054918;28;20044;-84
2022/08/16 08:38:29;;;;;;;1.70;0.82;;;;;;;14.93;100.00;100408.81;5053374;28;20079;-84
2022/08/16 08:41:14;;;;;;;2.60;0.88;;;;;;;14.68;100.00;100391.00;5038830;28;20049;-84
2022/08/16 08:43:45;;;;;;;1.67;0.80;;;;;;;14.70;100.00;100391.75;5054189;28;20041;-83
2022/08/16 08:46:16;;;;;;;2.20;0.70;;;;;;;14.67;100.00;100415.66;5054371;28;20087;-84
2022/08/16 08:48:49;;;;;;;2.05;0.70;;;;;;;14.71;100.00;100414.53;5054618;28;20162;-83
2022/08/16 08:51:29;;;;;;;2.45;0.82;;;;;;;14.48;100.00;100401.84;5041546;28;20049;-84
2022/08/16 08:54:03;;;;;;;1.55;0.82;;;;;;;14.75;100.00;100418.69;5048148;28;20060;-83
2022/08/16 08:56:36;;;;;;;1.15;0.75;;;;;;;14.73;100.00;100411.78;5040864;28;20103;-84
2022/08/16 08:59:05;;;;;;;1.83;1.00;;;;;;;14.51;100.00;100378.81;5053816;28;20052;-84
2022/08/16 09:01:46;;;;;;;0.93;0.70;;;;;;;14.50;100.00;100379.75;5040025;28;20140;-83
2022/08/16 09:04:26;;;;;;;2.15;1.00;;;;;;;14.85;100.00;100418.97;5042927;28;20450;-83
2022/08/16 09:06:53;;;;;;;3.55;0.95;;;;;;;14.79;100.00;100417.56;5054346;28;20051;-83
2022/08/16 09:09:21;;;;;;;2.92;0.93;;;;;;;14.61;100.00;100401.06;5055419;28;20056;-84
2022/08/16 09:11:54;;;;;;;3.33;1.02;;;;;;;14.59;100.00;100415.28;5054073;28;20049;-84
2022/08/16 09:14:34;;;;;;;6.38;1.65;;;;;;;14.47;100.00;100408.06;5041611;28;20475;-83
2022/08/16 09:17:01;;;;;;;3.78;1.30;;;;;;;14.63;100.00;100400.97;5054026;28;20482;-84
2022/08/16 09:19:48;;;;;;;1.83;0.90;;;;;;;14.99;100.00;100437.44;5036805;28;20053;-83
2022/08/16 09:22:26;;;;;;;2.53;0.85;;;;;;;14.84;100.00;100441.00;5045619;28;20379;-84
2022/08/16 09:24:53;;;;;;;2.23;0.90;;;;;;;14.98;100.00;100424.38;5053619;28;20048;-83
2022/08/16 09:27:36;;;;;;;1.90;0.82;;;;;;;14.87;100.00;100438.16;5054033;28;20444;-84
2022/08/16 09:30:23;;;;;;;5.22;1.13;;;;;;;14.75;100.00;100367.75;5041339;28;20045;-83
2022/08/16 09:33:09;;;;;;;4.10;1.00;;;;;;;15.08;100.00;100425.47;5049965;28;20045;-83
2022/08/16 09:35:37;;;;;;;2.22;0.98;;;;;;;15.03;100.00;100434.63;5033454;28;20140;-83
2022/08/16 09:38:05;;;;;;;1.88;0.80;;;;;;;14.73;100.00;100420.56;5047400;28;20052;-83
2022/08/16 09:40:35;;;;;;;3.15;0.80;;;;;;;14.80;100.00;100435.06;5040726;28;20052;-83
2022/08/16 09:43:11;;;;;;;1.50;0.80;;;;;;;14.86;100.00;100451.47;5042091;28;20050;-83
2022/08/16 09:45:59;;;;;;;2.28;0.90;;;;;;;15.17;100.00;100455.72;5043705;28;20515;-83
2022/08/16 09:48:27;;;;;;;1.23;0.70;;;;;;;15.22;100.00;100463.34;5049432;28;20053;-82
2022/08/16 09:51:11;;;;;;;2.85;0.80;;;;;;;15.19;100.00;100444.13;5054294;28;20087;-83
2022/08/16 09:53:38;;;;;;;1.05;0.70;;;;;;;14.95;100.00;100474.63;5053245;28;20471;-83
2022/08/16 09:56:21;;;;;;;4.68;1.00;;;;;;;14.78;100.00;100428.19;5054669;28;20048;-82
2022/08/16 09:58:52;;;;;;;1.88;0.90;;;;;;;14.79;100.00;100450.97;5049740;28;20480;-82
2022/08/16 10:01:35;;;;;;;2.70;0.80;;;;;;;14.65;100.00;100445.69;5033490;28;20475;-83
2022/08/16 10:04:04;;;;;;;5.32;1.23;;;;;;;15.03;100.00;100477.63;5051731;28;20095;-83
2022/08/16 10:06:56;;;;;;;4.13;1.30;;;;;;;15.29;100.00;100475.22;5040203;28;20084;-82
2022/08/16 10:09:24;;;;;;;2.70;0.80;;;;;;;15.46;100.00;100467.09;5052748;28;20059;-83
2022/08/16 10:14:56;;;;;;;6.55;1.10;;;;;;;15.05;100.00;100416.91;5044097;28;20052;-82
2022/08/16 10:17:23;;;;;;;3.35;1.02;;;;;;;15.25;100.00;100442.91;5041697;28;20049;-82
2022/08/16 10:19:51;;;;;;;4.50;1.10;;;;;;;14.98;100.00;100427.00;5052759;28;20399;-82
2022/08/16 10:22:18;;;;;;;2.65;1.00;;;;;;;15.00;100.00;100425.94;5041564;28;20056;-82
2022/08/16 10:24:49;;;;;;;2.65;0.90;;;;;;;15.33;100.00;100439.78;5052293;28;20128;-83
2022/08/16 10:27:26;;;;;;;6.38;1.40;;;;;;;15.38;100.00;100475.47;5053887;28;20059;-83
2022/08/16 10:30:14;;;;;;;5.28;1.27;;;;;;;15.05;100.00;100430.09;5039610;28;20048;-83
2022/08/16 10:32:51;;;;;;;3.85;0.90;;;;;;;15.11;100.00;100449.03;5047944;28;20083;-82
2022/08/16 10:35:18;;;;;;;2.20;0.90;;;;;;;14.88;100.00;100439.03;5052100;28;20053;-82
2022/08/16 10:37:45;;;;;;;2.25;0.90;;;;;;;14.89;100.00;100449.50;5053108;28;20057;-82
2022/08/16 10:40:12;;;;;;;4.20;1.05;;;;;;;15.05;100.00;100469.63;5053267;28;20417;-82
2022/08/16 10:42:56;;;;;;;;;;;;;;;15.34;100.00;100508.28;5054041;28;20049;-82
2022/08/16 10:45:24;;;;;;;3.45;1.13;;;;;;;15.01;100.00;100468.97;5052290;28;19920;-82
2022/08/16 10:47:54;;;;;;;2.53;1.00;;;;;;;15.16;100.00;100454.88;5044963;28;20056;-83
2022/08/16 10:50:30;;;;;;;3.88;1.10;;;;;;;15.35;100.00;100482.72;5051894;28;20041;-83
2022/08/16 10:52:57;;;;;;;3.50;1.10;;;;;;;15.23;100.00;100504.59;5052058;28;20072;-83
2022/08/16 10:55:25;;;;;;;3.08;1.10;;;;;;;15.16;100.00;100449.59;5048476;28;20053;-83
2022/08/16 10:58:14;;;;;;;2.25;0.90;;;;;;;14.89;100.00;100460.03;5045984;28;20064;-83
2022/08/16 11:00:43;;;;;;;4.30;1.15;;;;;;;15.19;100.00;100469.63;5037746;28;20088;-82
2022/08/16 11:03:13;;;;;;;3.95;1.00;;;;;;;15.13;100.00;100499.03;5048457;28;20091;-84
2022/08/16 11:06:00;;;;;;;3.67;1.00;;;;;;;14.80;100.00;100468.47;5046306;28;20053;-83
2022/08/16 11:08:34;;;;;;;5.07;1.30;;;;;;;14.73;100.00;100470.66;5032194;28;20064;-83
2022/08/16 11:11:06;;;;;;;5.97;1.40;;;;;;;14.95;100.00;100503.63;5050765;28;20580;-83
2022/08/16 11:13:47;;;;;;;4.47;1.23;;;;;;;15.34;100.00;100525.91;5047085;28;20044;-83
2022/08/16 11:16:34;;;;;;;4.28;1.63;;;;;;;15.19;100.00;100520.63;5047916;28;20041;-83
2022/08/16 11:19:21;;;;;;;6.47;1.10;;;;;;;15.46;100.00;100525.16;5046328;28;20053;-84
2022/08/16 11:21:49;;;;;;;4.55;1.17;;;;;;;15.19;100.00;100515.34;5038640;28;20562;-84
2022/08/16 11:24:39;;;;;;;2.67;1.10;;;;;;;15.37;100.00;100523.91;5052384;28;20052;-84
2022/08/16 11:27:19;;;;;;;3.97;1.17;;;;;;;15.55;100.00;100508.75;5051322;28;20063;-84
2022/08/16 11:29:53;;;;;;;4.38;1.10;;;;;;;15.74;100.00;100536.63;5051382;28;20055;-84
2022/08/16 11:32:24;;;;;;;4.03;1.10;;;;;;;15.71;100.00;100535.03;5051548;28;20048;-84
2022/08/16 11:35:02;;;;;;;5.80;1.20;;;;;;;15.30;100.00;100534.94;5051961;28;20099;-83
2022/08/16 11:37:43;;;;;;;5.40;1.10;;;;;;;15.15;100.00;100548.09;5051500;28;20055;-83
2022/08/16 11:40:56;;;;;;;6.35;1.30;;;;;;;15.23;100.00;100534.47;5038216;28;20049;-83
2022/08/16 11:43:27;;;;;;;3.53;1.13;;;;;;;15.42;100.00;100534.19;5033895;28;20042;-83
2022/08/16 11:45:56;;;;;;;2.70;0.95;;;;;;;15.41;100.00;100555.41;5052566;28;20479;-83
2022/08/16 11:48:29;;;;;;;6.88;1.20;;;;;;;15.84;100.00;100550.13;5052688;28;20103;-83
2022/08/16 11:50:56;;;;;;;5.72;1.30;;;;;;;15.62;100.00;100529.50;5051622;28;20407;-83